Time;durP1;ratioP1;P1;durP2;ratioP2;P2;SDS_P1;SDS_P2;PMS_P1;PMS_P2;Temp;Humidity;BMP_temperature;BMP_pressure;BME280_temperature;BME280_humidity;BME280_pressure;Samples;Min_cycle;Max_cycle;Signal;HPM_P1;HPM_P2
2021/03/23 00:00:21;;;;;;;2.15;2.05;;;6.10;77.10;;;;;;5046103;28;20231;-67
2021/03/23 00:02:49;;;;;;;1.50;1.40;;;6.10;77.30;;;;;;5047978;28;20199;-67
2021/03/23 00:05:16;;;;;;;1.73;1.63;;;6.10;77.50;;;;;;5049231;28;20219;-67
2021/03/23 00:07:43;;;;;;;1.73;1.63;;;6.10;77.50;;;;;;5048802;28;20273;-67
2021/03/23 00:10:11;;;;;;;2.35;1.95;;;6.00;77.30;;;;;;5048305;28;20700;-67
2021/03/23 00:12:38;;;;;;;2.13;2.03;;;6.00;77.30;;;;;;5046227;28;20273;-67
2021/03/23 00:15:08;;;;;;;2.10;2.00;;;6.00;77.60;;;;;;5048982;28;20719;-67
2021/03/23 00:17:36;;;;;;;1.90;1.80;;;5.90;77.90;;;;;;5053455;28;20202;-67
2021/03/23 00:20:05;;;;;;;1.75;1.65;;;5.90;77.70;;;;;;5045479;28;20237;-67
2021/03/23 00:22:34;;;;;;;1.92;1.83;;;5.90;78.10;;;;;;5047543;28;20263;-67
2021/03/23 00:25:00;;;;;;;1.95;1.85;;;5.90;78.40;;;;;;5043059;28;20227;-67
2021/03/23 00:27:27;;;;;;;2.08;1.98;;;5.90;78.90;;;;;;5049691;28;20580;-67
2021/03/23 00:29:54;;;;;;;2.10;1.90;;;5.90;78.50;;;;;;5046982;28;20288;-67
2021/03/23 00:32:20;;;;;;;2.13;2.03;;;5.80;78.20;;;;;;5052556;28;20222;-67
2021/03/23 00:34:48;;;;;;;1.90;1.80;;;5.80;78.80;;;;;;5053664;28;20218;-67
2021/03/23 00:37:15;;;;;;;2.47;2.28;;;5.90;78.60;;;;;;5053577;28;20202;-67
2021/03/23 00:39:42;;;;;;;2.05;1.95;;;5.90;78.60;;;;;;5046847;28;20223;-68
2021/03/23 00:42:09;;;;;;;2.53;2.28;;;5.90;78.60;;;;;;5045951;28;20202;-67
2021/03/23 00:44:36;;;;;;;2.10;2.00;;;5.90;78.40;;;;;;5046095;28;20223;-68
2021/03/23 00:47:03;;;;;;;2.45;2.25;;;5.90;78.60;;;;;;5050903;28;20252;-67
2021/03/23 00:49:30;;;;;;;2.22;2.03;;;5.90;78.60;;;;;;5046237;28;20222;-67
2021/03/23 00:51:58;;;;;;;2.58;1.98;;;5.90;78.60;;;;;;5052375;28;20221;-67
2021/03/23 00:54:24;;;;;;;2.15;2.03;;;5.90;79.40;;;;;;5050142;28;20230;-67
2021/03/23 00:56:51;;;;;;;1.85;1.75;;;5.90;78.60;;;;;;5050872;28;20205;-67
2021/03/23 00:59:17;;;;;;;2.20;2.10;;;5.80;78.80;;;;;;5053363;28;20272;-67
2021/03/23 01:01:44;;;;;;;2.28;2.17;;;5.80;79.50;;;;;;5049250;28;20202;-67
2021/03/23 01:04:11;;;;;;;4.15;2.65;;;5.80;79.20;;;;;;5049240;28;20313;-67
2021/03/23 01:06:37;;;;;;;2.40;2.30;;;5.80;79.40;;;;;;5051149;28;20198;-67
2021/03/23 01:09:05;;;;;;;2.08;1.98;;;5.80;78.80;;;;;;5043229;28;20214;-67
2021/03/23 01:11:32;;;;;;;1.90;1.80;;;5.80;78.70;;;;;;5051282;28;20223;-67
2021/03/23 01:13:58;;;;;;;2.10;2.00;;;5.80;79.40;;;;;;5046324;28;20249;-67
2021/03/23 01:16:25;;;;;;;2.75;2.55;;;5.70;79.20;;;;;;5044912;28;20204;-67
2021/03/23 01:18:52;;;;;;;2.33;2.13;;;5.70;79.30;;;;;;5055137;28;20225;-67
2021/03/23 01:21:18;;;;;;;2.42;2.22;;;5.70;79.60;;;;;;5048347;28;20219;-67
2021/03/23 01:23:45;;;;;;;2.05;1.90;;;5.80;80.40;;;;;;5046321;28;20222;-67
2021/03/23 01:26:13;;;;;;;2.30;2.10;;;5.80;79.80;;;;;;5045334;28;20215;-67
2021/03/23 01:28:40;;;;;;;2.45;1.90;;;5.80;79.20;;;;;;5051223;28;20199;-67
2021/03/23 01:31:06;;;;;;;2.00;1.90;;;5.70;79.70;;;;;;5046002;28;20227;-67
2021/03/23 01:33:33;;;;;;;2.00;1.90;;;5.70;79.80;;;;;;5051310;28;20202;-67
2021/03/23 01:35:59;;;;;;;1.88;1.77;;;5.70;79.60;;;;;;5047356;28;20241;-67
2021/03/23 01:38:26;;;;;;;2.67;2.17;;;5.60;79.50;;;;;;5044696;28;20207;-67
2021/03/23 01:40:52;;;;;;;2.33;2.10;;;5.60;79.80;;;;;;5046571;28;20215;-67
2021/03/23 01:43:24;;;;;;;2.00;1.85;;;5.50;79.80;;;;;;5045752;28;20195;-67
2021/03/23 01:45:51;;;;;;;2.33;2.22;;;5.50;80.30;;;;;;5044240;28;20215;-67
2021/03/23 01:48:21;;;;;;;2.20;2.10;;;5.50;80.80;;;;;;5047773;28;20203;-67
2021/03/23 01:50:50;;;;;;;1.90;1.80;;;5.60;80.20;;;;;;5046529;28;20226;-67
2021/03/23 01:53:24;;;;;;;1.83;1.70;;;5.60;80.00;;;;;;5044044;28;20195;-67
2021/03/23 01:55:50;;;;;;;1.95;1.85;;;5.50;79.90;;;;;;5048104;28;20214;-67
2021/03/23 01:58:19;;;;;;;2.08;1.98;;;5.50;79.80;;;;;;5049300;28;20925;-67
2021/03/23 02:00:48;;;;;;;2.10;2.00;;;5.40;80.20;;;;;;5052199;28;20229;-68
2021/03/23 02:03:15;;;;;;;1.98;1.88;;;5.40;80.60;;;;;;5050296;28;20266;-67
2021/03/23 02:05:42;;;;;;;2.00;1.90;;;5.40;80.50;;;;;;5047527;28;20229;-67
2021/03/23 02:08:09;;;;;;;2.50;2.40;;;5.30;80.80;;;;;;5047070;28;20198;-68
2021/03/23 02:10:36;;;;;;;2.30;2.20;;;5.30;80.80;;;;;;5047107;28;20235;-67
2021/03/23 02:13:06;;;;;;;2.95;2.33;;;5.20;80.60;;;;;;5049435;28;20206;-67
2021/03/23 02:15:33;;;;;;;2.40;2.30;;;5.20;80.80;;;;;;5044348;28;20227;-67
2021/03/23 02:18:25;;;;;;;2.10;2.00;;;5.20;80.90;;;;;;5048892;28;20226;-67
2021/03/23 02:21:01;;;;;;;2.50;2.40;;;5.30;81.10;;;;;;5035881;28;20222;-67
2021/03/23 02:23:30;;;;;;;2.20;2.08;;;5.30;80.80;;;;;;5048219;28;20198;-67
2021/03/23 02:25:57;;;;;;;2.33;2.22;;;5.30;81.00;;;;;;5048175;28;20238;-67
2021/03/23 02:28:24;;;;;;;1.85;1.75;;;5.30;80.60;;;;;;5044537;28;20676;-67
2021/03/23 02:30:52;;;;;;;2.25;2.15;;;5.40;80.90;;;;;;5050272;28;20219;-67
2021/03/23 02:33:19;;;;;;;1.52;1.45;;;5.40;80.50;;;;;;5049317;28;20195;-67
2021/03/23 02:35:46;;;;;;;2.13;1.95;;;5.30;80.80;;;;;;5047141;28;20249;-67
2021/03/23 02:38:14;;;;;;;2.28;2.17;;;5.30;81.10;;;;;;5050094;28;20268;-67
2021/03/23 02:40:41;;;;;;;2.20;2.10;;;5.30;80.90;;;;;;5045411;28;20252;-67
2021/03/23 02:43:08;;;;;;;2.13;2.03;;;5.20;80.70;;;;;;5048088;28;20207;-68
2021/03/23 02:45:35;;;;;;;2.17;2.08;;;5.20;80.90;;;;;;5058101;28;20215;-67
2021/03/23 02:48:01;;;;;;;2.25;2.15;;;5.10;81.00;;;;;;5051120;28;20199;-67
2021/03/23 02:50:28;;;;;;;2.42;2.33;;;5.00;81.00;;;;;;5050595;28;20759;-67
2021/03/23 02:52:55;;;;;;;2.50;2.30;;;5.00;81.20;;;;;;5054456;28;20227;-67
2021/03/23 02:55:22;;;;;;;2.28;2.17;;;5.00;81.70;;;;;;5048604;28;20219;-67
2021/03/23 02:57:49;;;;;;;2.53;2.33;;;5.00;82.40;;;;;;5055503;28;20199;-67
2021/03/23 03:00:18;;;;;;;2.40;2.25;;;5.00;81.60;;;;;;5046058;28;20288;-67
2021/03/23 03:02:45;;;;;;;2.00;1.83;;;5.00;81.80;;;;;;5051103;28;20549;-67
2021/03/23 03:05:12;;;;;;;2.22;2.13;;;5.00;82.10;;;;;;5051713;28;20218;-69
2021/03/23 03:07:39;;;;;;;2.17;2.08;;;4.90;82.40;;;;;;5047735;28;20264;-67
2021/03/23 03:10:07;;;;;;;2.05;1.95;;;4.80;83.10;;;;;;5050538;28;20777;-69
2021/03/23 03:12:35;;;;;;;2.00;1.90;;;4.60;83.70;;;;;;5044376;28;20308;-68
2021/03/23 03:15:01;;;;;;;1.73;1.63;;;4.40;84.00;;;;;;5045564;28;20218;-67
2021/03/23 03:17:28;;;;;;;2.30;2.10;;;4.30;84.90;;;;;;5051001;28;20191;-67
2021/03/23 03:19:55;;;;;;;2.15;2.00;;;4.20;85.10;;;;;;5045800;28;20741;-67
2021/03/23 03:22:21;;;;;;;2.10;2.00;;;4.10;85.50;;;;;;5046990;28;20195;-68
2021/03/23 03:24:48;;;;;;;2.28;2.03;;;4.10;85.70;;;;;;5053174;28;20230;-67
2021/03/23 03:27:14;;;;;;;3.75;2.05;;;4.00;85.90;;;;;;5047804;28;20202;-69
2021/03/23 03:32:16;;;;;;;2.17;2.08;;;4.00;86.30;;;;;;5082024;22;20295;-76
2021/03/23 03:34:42;;;;;;;2.13;2.03;;;4.00;86.10;;;;;;5064086;28;20226;-76
2021/03/23 03:37:09;;;;;;;2.53;2.33;;;4.00;87.00;;;;;;5067052;28;20198;-76
2021/03/23 03:39:36;;;;;;;1.90;1.80;;;4.00;86.20;;;;;;5062705;28;20190;-75
2021/03/23 03:42:03;;;;;;;2.60;2.40;;;3.90;86.00;;;;;;5066660;28;20206;-75
2021/03/23 03:44:29;;;;;;;2.35;2.25;;;4.00;86.90;;;;;;5063635;28;20191;-75
2021/03/23 03:46:56;;;;;;;2.53;2.42;;;4.00;87.10;;;;;;5063125;28;20243;-75
2021/03/23 03:49:23;;;;;;;2.65;2.47;;;4.10;87.20;;;;;;5065906;28;20225;-75
2021/03/23 03:51:50;;;;;;;2.70;2.50;;;4.10;87.00;;;;;;5060956;28;20218;-76
2021/03/23 03:54:16;;;;;;;2.47;2.38;;;4.10;86.70;;;;;;5064132;28;20194;-75
2021/03/23 03:56:43;;;;;;;2.05;1.95;;;4.10;86.90;;;;;;5063652;28;20222;-75
2021/03/23 03:59:10;;;;;;;2.42;2.22;;;4.10;87.30;;;;;;5063809;28;20230;-75
2021/03/23 04:01:36;;;;;;;2.40;2.30;;;4.10;87.10;;;;;;5063611;28;20218;-74
2021/03/23 04:04:03;;;;;;;2.63;2.42;;;4.00;86.70;;;;;;5061157;28;20199;-75
2021/03/23 04:06:30;;;;;;;2.10;2.00;;;4.00;86.70;;;;;;5056393;28;20223;-76
2021/03/23 04:08:57;;;;;;;2.30;2.20;;;4.00;87.10;;;;;;5065719;28;20615;-74
2021/03/23 04:11:24;;;;;;;2.72;2.63;;;4.00;86.40;;;;;;5068557;28;20279;-74
2021/03/23 04:13:51;;;;;;;2.80;2.60;;;4.00;86.70;;;;;;5064504;28;20676;-74
2021/03/23 04:16:17;;;;;;;2.00;1.90;;;4.00;87.10;;;;;;5065019;28;20218;-76
2021/03/23 04:18:44;;;;;;;2.50;2.17;;;4.00;86.60;;;;;;5063683;28;20261;-75
2021/03/23 04:21:10;;;;;;;3.33;2.50;;;4.00;86.90;;;;;;5062358;28;20226;-75
2021/03/23 04:23:39;;;;;;;3.60;2.38;;;4.00;86.30;;;;;;5063615;28;20304;-74
2021/03/23 04:26:08;;;;;;;2.70;2.60;;;3.80;87.30;;;;;;5065321;28;20218;-75
2021/03/23 04:28:34;;;;;;;3.10;2.90;;;3.80;87.80;;;;;;5064644;28;20199;-74
2021/03/23 04:31:01;;;;;;;2.60;2.50;;;3.60;87.70;;;;;;5060958;28;20272;-75
2021/03/23 04:33:29;;;;;;;2.80;2.53;;;3.60;89.60;;;;;;5062594;28;20199;-75
2021/03/23 04:35:58;;;;;;;2.80;2.63;;;3.60;89.80;;;;;;5064367;28;20738;-74
2021/03/23 04:38:27;;;;;;;2.83;2.63;;;3.50;89.20;;;;;;5066950;28;20203;-74
2021/03/23 04:40:55;;;;;;;2.28;2.17;;;3.50;88.70;;;;;;5058979;28;20241;-74
2021/03/23 04:43:25;;;;;;;2.15;2.05;;;3.50;88.60;;;;;;5063091;28;20198;-76
2021/03/23 04:45:51;;;;;;;2.25;2.15;;;3.50;88.00;;;;;;5065636;28;20218;-74
2021/03/23 04:48:18;;;;;;;2.50;2.38;;;3.60;88.10;;;;;;5061656;28;20511;-74
2021/03/23 04:50:45;;;;;;;2.00;1.90;;;3.60;87.40;;;;;;5058589;28;20226;-75
2021/03/23 04:53:20;;;;;;;2.10;1.90;;;3.60;87.40;;;;;;5062711;28;20198;-75
2021/03/23 04:55:47;;;;;;;2.13;2.00;;;3.70;87.50;;;;;;5062808;28;20218;-74
2021/03/23 04:58:16;;;;;;;2.53;2.42;;;3.80;87.60;;;;;;5065392;28;20198;-74
2021/03/23 05:00:42;;;;;;;2.80;2.60;;;3.90;87.50;;;;;;5060444;28;20227;-75
2021/03/23 05:03:14;;;;;;;2.60;2.50;;;3.80;87.80;;;;;;5065248;28;20191;-75
2021/03/23 05:05:41;;;;;;;3.03;2.88;;;3.90;87.30;;;;;;5062168;28;20215;-74
2021/03/23 05:08:07;;;;;;;2.90;2.70;;;3.90;87.60;;;;;;5062431;28;20256;-74
2021/03/23 05:10:34;;;;;;;2.05;1.95;;;3.90;88.00;;;;;;5063877;28;20405;-74
2021/03/23 05:13:02;;;;;;;2.47;2.38;;;3.80;88.10;;;;;;5061090;28;20636;-74
2021/03/23 05:15:29;;;;;;;2.50;2.40;;;3.70;88.30;;;;;;5066666;28;20229;-74
2021/03/23 05:17:56;;;;;;;2.25;2.15;;;3.70;88.20;;;;;;5060750;28;20195;-74
2021/03/23 05:20:23;;;;;;;2.72;2.63;;;3.70;88.20;;;;;;5057421;28;22618;-75
2021/03/23 05:22:50;;;;;;;3.17;2.97;;;3.70;88.60;;;;;;5066109;28;20193;-74
2021/03/23 05:25:17;;;;;;;2.85;2.65;;;3.70;88.40;;;;;;5066607;28;20226;-75
2021/03/23 05:27:43;;;;;;;3.15;2.95;;;3.70;88.70;;;;;;5064106;28;20789;-74
2021/03/23 05:30:11;;;;;;;3.22;2.95;;;3.70;89.50;;;;;;5062607;28;20642;-75
2021/03/23 05:32:38;;;;;;;3.00;2.70;;;3.80;88.60;;;;;;5064269;28;20214;-75
2021/03/23 05:35:06;;;;;;;2.42;2.33;;;3.80;88.60;;;;;;5060428;28;20286;-75
2021/03/23 05:37:35;;;;;;;2.65;2.55;;;3.90;88.60;;;;;;5062385;28;20202;-75
2021/03/23 05:40:01;;;;;;;2.33;2.13;;;3.80;88.90;;;;;;5062822;28;20672;-75
2021/03/23 05:42:34;;;;;;;2.67;2.53;;;3.80;88.80;;;;;;5060728;28;20194;-75
2021/03/23 05:45:16;;;;;;;2.70;2.50;;;3.90;88.70;;;;;;5059219;28;20195;-74
2021/03/23 05:47:44;;;;;;;2.42;2.22;;;3.90;89.60;;;;;;5060892;28;20201;-76
2021/03/23 05:50:20;;;;;;;2.28;2.15;;;3.90;89.20;;;;;;5061265;28;20225;-75
2021/03/23 05:52:54;;;;;;;2.95;2.63;;;3.90;89.20;;;;;;5058502;28;20214;-74
2021/03/23 05:55:33;;;;;;;2.63;2.42;;;3.90;89.80;;;;;;5058806;28;20232;-76
2021/03/23 05:58:02;;;;;;;2.58;2.47;;;3.80;90.00;;;;;;5060713;28;20201;-76
2021/03/23 06:00:31;;;;;;;3.10;2.83;;;4.10;90.40;;;;;;5061153;28;20249;-75
2021/03/23 06:03:10;;;;;;;3.30;3.00;;;4.50;90.10;;;;;;5063570;28;20203;-75
2021/03/23 06:05:41;;;;;;;2.83;2.70;;;5.00;90.00;;;;;;5064799;28;20221;-75
2021/03/23 06:08:25;;;;;;;2.55;2.35;;;5.60;88.40;;;;;;5061670;28;20741;-74
2021/03/23 06:11:23;;;;;;;2.88;2.63;;;5.90;87.80;;;;;;5060394;28;20222;-75
2021/03/23 06:13:56;;;;;;;3.03;2.83;;;6.10;88.20;;;;;;5063907;28;20198;-76
2021/03/23 06:16:35;;;;;;;3.38;2.83;;;6.00;87.90;;;;;;5061290;28;20214;-75
2021/03/23 06:19:13;;;;;;;2.97;2.78;;;5.90;88.40;;;;;;5061580;28;20202;-74
2021/03/23 06:21:44;;;;;;;2.65;2.45;;;5.80;88.20;;;;;;5062332;28;20221;-77
2021/03/23 06:24:22;;;;;;;2.55;2.42;;;5.60;88.90;;;;;;5062553;28;20244;-77
2021/03/23 06:26:57;;;;;;;2.70;2.50;;;5.40;89.60;;;;;;5068185;28;20623;-76
2021/03/23 06:29:56;;;;;;;2.97;2.78;;;5.40;89.80;;;;;;5071574;28;20694;-77
2021/03/23 06:32:37;;;;;;;2.58;2.47;;;5.30;89.90;;;;;;5062807;28;20275;-77
2021/03/23 06:35:07;;;;;;;2.67;2.38;;;5.20;90.10;;;;;;5062015;28;20198;-75
2021/03/23 06:37:36;;;;;;;2.33;2.22;;;5.30;90.30;;;;;;5061763;28;20247;-77
2021/03/23 06:40:11;;;;;;;3.60;3.40;;;5.30;90.00;;;;;;5061852;28;20218;-77
2021/03/23 06:42:40;;;;;;;2.70;2.50;;;5.30;90.20;;;;;;5061117;28;20553;-75
2021/03/23 06:45:26;;;;;;;3.10;2.90;;;5.30;90.10;;;;;;5062008;28;20264;-75
2021/03/23 06:47:52;;;;;;;3.00;2.80;;;5.30;90.10;;;;;;5063564;28;20642;-75
2021/03/23 06:50:36;;;;;;;2.28;2.17;;;5.40;90.10;;;;;;5060573;28;20663;-76
2021/03/23 06:53:12;;;;;;;2.83;2.53;;;5.40;89.90;;;;;;5060633;28;20215;-76
2021/03/23 06:55:40;;;;;;;2.47;2.38;;;5.40;89.60;;;;;;5061470;28;20218;-76
2021/03/23 06:58:31;;;;;;;2.65;2.45;;;5.40;89.60;;;;;;5064044;28;20206;-77
2021/03/23 07:01:19;;;;;;;2.88;2.67;;;5.50;89.40;;;;;;5060290;28;20719;-77
2021/03/23 07:03:49;;;;;;;2.30;2.20;;;5.60;89.70;;;;;;5063102;28;20656;-77
2021/03/23 07:06:23;;;;;;;3.75;2.28;;;5.80;89.20;;;;;;5058092;28;20214;-76
2021/03/23 07:09:06;;;;;;;2.38;2.28;;;6.00;87.90;;;;;;5061389;28;20198;-77
2021/03/23 07:11:54;;;;;;;2.30;2.20;;;6.10;88.10;;;;;;5060760;28;20435;-77
2021/03/23 07:14:35;;;;;;;2.47;2.38;;;6.20;87.40;;;;;;5063581;28;20195;-77
2021/03/23 07:17:27;;;;;;;2.65;2.45;;;6.20;87.60;;;;;;5062452;28;20751;-77
2021/03/23 07:19:58;;;;;;;2.90;2.70;;;6.30;87.80;;;;;;5052725;28;20206;-77
2021/03/23 07:22:34;;;;;;;2.60;2.40;;;6.60;87.70;;;;;;5063644;28;20599;-77
2021/03/23 07:25:01;;;;;;;2.88;2.67;;;6.80;87.50;;;;;;5057690;28;20289;-76
2021/03/23 07:27:30;;;;;;;3.70;2.85;;;7.00;87.40;;;;;;5060532;28;20325;-77
2021/03/23 07:30:31;;;;;;;3.00;2.50;;;7.50;87.10;;;;;;5059590;28;20190;-74
2021/03/23 07:33:02;;;;;;;2.60;2.40;;;7.90;85.40;;;;;;4979141;28;20221;-75
2021/03/23 07:35:33;;;;;;;2.88;2.42;;;8.20;84.20;;;;;;4979992;28;20483;-77
2021/03/23 07:38:06;;;;;;;2.85;2.65;;;8.50;83.50;;;;;;5021159;28;20229;-76
2021/03/23 07:40:38;;;;;;;2.70;2.50;;;8.60;82.90;;;;;;5062288;28;20222;-78
2021/03/23 07:43:30;;;;;;;2.45;2.25;;;8.70;84.90;;;;;;5059064;28;20218;-76
2021/03/23 07:46:03;;;;;;;2.88;2.63;;;8.40;83.20;;;;;;5046287;28;20203;-77
2021/03/23 07:48:41;;;;;;;2.63;2.42;;;8.50;83.20;;;;;;5058504;28;20233;-77
2021/03/23 07:51:34;;;;;;;4.80;2.30;;;8.50;82.70;;;;;;5055046;28;20222;-76
2021/03/23 07:54:22;;;;;;;3.20;2.33;;;8.40;82.30;;;;;;5056269;28;20222;-74
2021/03/23 07:57:06;;;;;;;2.10;2.00;;;8.20;83.10;;;;;;5057278;28;20287;-76
2021/03/23 07:59:51;;;;;;;3.20;2.38;;;8.10;83.70;;;;;;5059212;28;20202;-76
2021/03/23 08:02:36;;;;;;;3.78;2.63;;;8.10;84.50;;;;;;5058456;28;20276;-77
2021/03/23 08:05:11;;;;;;;2.92;2.53;;;8.20;84.90;;;;;;5055631;28;20191;-76
2021/03/23 08:07:44;;;;;;;2.45;2.30;;;8.10;84.90;;;;;;5055742;28;20225;-77
2021/03/23 08:10:34;;;;;;;2.70;2.50;;;8.00;84.50;;;;;;5054972;28;20219;-76
2021/03/23 08:13:26;;;;;;;2.60;2.00;;;8.20;84.80;;;;;;5057295;28;20237;-75
2021/03/23 08:16:34;;;;;;;2.85;2.65;;;8.30;85.10;;;;;;5060463;28;20198;-74
2021/03/23 08:19:30;;;;;;;2.83;2.60;;;8.40;85.00;;;;;;5052656;28;20227;-75
2021/03/23 08:22:28;;;;;;;2.83;2.40;;;8.40;84.30;;;;;;5045723;28;20210;-76
2021/03/23 08:25:03;;;;;;;2.72;2.17;;;8.50;85.00;;;;;;5057268;28;20191;-76
2021/03/23 08:28:15;;;;;;;2.13;2.00;;;8.40;84.30;;;;;;5055950;28;20227;-76
2021/03/23 08:30:56;;;;;;;2.55;2.35;;;8.50;84.10;;;;;;5016836;28;20279;-76
2021/03/23 08:33:41;;;;;;;2.20;2.00;;;8.50;84.00;;;;;;5057912;28;20219;-77
2021/03/23 08:36:30;;;;;;;3.63;1.95;;;9.00;83.20;;;;;;5055884;28;20196;-76
2021/03/23 08:39:04;;;;;;;2.47;2.30;;;9.60;83.10;;;;;;5043691;28;20215;-75
2021/03/23 08:41:40;;;;;;;5.72;1.98;;;10.30;81.90;;;;;;5057001;28;20222;-76
2021/03/23 08:44:18;;;;;;;2.72;2.30;;;10.80;81.20;;;;;;5056881;28;20218;-77
2021/03/23 08:46:45;;;;;;;2.63;2.42;;;11.10;79.70;;;;;;5058260;28;20201;-77
2021/03/23 08:49:19;;;;;;;2.25;2.08;;;11.20;78.30;;;;;;5056302;28;20234;-74
2021/03/23 08:51:50;;;;;;;4.95;2.47;;;11.20;77.90;;;;;;5055369;28;20226;-74
2021/03/23 08:54:48;;;;;;;2.75;2.42;;;11.40;77.60;;;;;;5063193;28;20220;-75
2021/03/23 08:57:16;;;;;;;3.95;2.10;;;11.80;76.10;;;;;;5055173;28;20221;-73
2021/03/23 08:59:49;;;;;;;3.15;2.40;;;12.00;75.70;;;;;;5054844;28;20661;-74
2021/03/23 09:02:47;;;;;;;3.33;2.45;;;12.30;76.00;;;;;;5052941;28;20214;-77
2021/03/23 09:05:33;;;;;;;2.50;2.35;;;12.40;73.80;;;;;;5061564;28;20205;-76
2021/03/23 09:08:31;;;;;;;2.60;2.40;;;12.40;73.30;;;;;;5054242;28;20230;-77
2021/03/23 09:11:01;;;;;;;2.20;2.00;;;12.80;74.10;;;;;;5058272;28;20417;-76
2021/03/23 09:14:08;;;;;;;4.03;1.95;;;13.40;74.40;;;;;;5051055;28;20700;-77
2021/03/23 09:17:01;;;;;;;1.88;1.77;;;13.70;72.00;;;;;;5056180;28;20202;-77
2021/03/23 09:19:38;;;;;;;1.92;1.83;;;14.00;71.50;;;;;;5057804;28;20805;-77
2021/03/23 09:22:14;;;;;;;4.45;2.17;;;13.80;68.70;;;;;;5057518;28;20218;-76
2021/03/23 09:24:42;;;;;;;2.03;1.83;;;13.80;69.80;;;;;;5061574;28;20194;-76
2021/03/23 09:27:15;;;;;;;2.13;1.95;;;13.80;69.80;;;;;;5055858;28;20195;-77
2021/03/23 09:29:45;;;;;;;2.05;1.90;;;13.90;69.90;;;;;;5065919;28;20514;-76
2021/03/23 09:32:15;;;;;;;2.05;1.90;;;13.90;71.30;;;;;;5087923;22;20214;-68
2021/03/23 09:35:06;;;;;;;1.52;1.42;;;14.00;70.10;;;;;;5052335;28;20328;-68
2021/03/23 09:37:37;;;;;;;1.75;1.65;;;14.20;69.20;;;;;;5055012;28;20787;-70
2021/03/23 09:40:47;;;;;;;1.80;1.70;;;14.40;70.20;;;;;;5058967;28;20779;-69
2021/03/23 09:43:41;;;;;;;1.80;1.70;;;14.80;70.20;;;;;;5037814;28;20641;-69
2021/03/23 09:46:15;;;;;;;2.72;1.65;;;15.00;69.10;;;;;;4993127;28;20187;-68
2021/03/23 09:48:53;;;;;;;1.77;1.67;;;14.80;66.70;;;;;;5036828;28;20219;-68
2021/03/23 09:51:51;;;;;;;1.70;1.40;;;14.60;67.70;;;;;;5036964;28;20298;-69
2021/03/23 09:54:25;;;;;;;1.77;1.50;;;14.30;69.10;;;;;;5032709;28;20225;-69
2021/03/23 09:56:54;;;;;;;1.13;1.13;;;14.40;66.80;;;;;;5039521;28;20213;-68
2021/03/23 09:59:24;;;;;;;1.77;1.65;;;14.50;67.30;;;;;;5038721;28;20218;-69
2021/03/23 10:01:59;;;;;;;1.60;1.50;;;14.60;69.10;;;;;;5036108;28;20214;-69
2021/03/23 10:04:28;;;;;;;1.80;1.70;;;14.70;67.50;;;;;;5038072;28;20211;-69
2021/03/23 10:06:57;;;;;;;1.35;1.25;;;14.80;66.90;;;;;;5035600;28;20260;-69
2021/03/23 10:09:26;;;;;;;2.20;2.00;;;14.80;66.40;;;;;;5039685;28;21338;-68
2021/03/23 10:11:53;;;;;;;1.88;1.77;;;14.70;65.60;;;;;;5034174;28;20299;-68
2021/03/23 10:14:38;;;;;;;2.72;1.70;;;14.50;65.80;;;;;;5033761;28;20738;-69
2021/03/23 10:17:08;;;;;;;1.88;1.48;;;14.40;65.60;;;;;;5035197;28;20673;-69
2021/03/23 10:19:38;;;;;;;1.20;1.10;;;14.60;66.10;;;;;;5034935;28;20211;-68
2021/03/23 10:22:11;;;;;;;2.13;1.52;;;15.00;66.10;;;;;;5030349;28;20578;-68
2021/03/23 10:24:40;;;;;;;1.77;1.55;;;15.30;65.20;;;;;;5032501;28;20655;-69
2021/03/23 10:27:17;;;;;;;1.63;1.30;;;15.50;65.00;;;;;;5035025;28;20214;-68
2021/03/23 10:30:02;;;;;;;1.77;1.45;;;15.50;64.70;;;;;;5032282;28;20693;-68
2021/03/23 10:32:38;;;;;;;1.63;1.52;;;15.30;64.80;;;;;;5037870;28;20223;-68
2021/03/23 10:35:16;;;;;;;1.70;1.52;;;15.10;63.90;;;;;;5033926;28;20206;-68
2021/03/23 10:37:44;;;;;;;1.42;1.33;;;15.10;65.10;;;;;;5036423;28;20277;-69
2021/03/23 10:40:41;;;;;;;1.55;1.45;;;15.10;66.60;;;;;;5040095;28;20211;-69
2021/03/23 10:43:13;;;;;;;2.28;1.40;;;15.00;63.90;;;;;;4938185;28;20226;-69
2021/03/23 10:45:43;;;;;;;1.52;1.42;;;14.90;64.70;;;;;;5013755;28;20204;-69
2021/03/23 10:48:18;;;;;;;1.42;1.20;;;14.90;65.00;;;;;;5031506;28;20264;-68
2021/03/23 10:50:47;;;;;;;4.10;1.80;;;15.00;64.90;;;;;;5034232;28;20211;-68
2021/03/23 10:53:23;;;;;;;1.40;1.30;;;15.00;65.80;;;;;;5034502;28;20717;-69
2021/03/23 10:55:51;;;;;;;2.30;1.58;;;15.30;65.90;;;;;;5044412;28;20191;-69
2021/03/23 10:58:24;;;;;;;2.40;1.60;;;15.60;66.30;;;;;;5036840;28;20265;-69
2021/03/23 11:01:09;;;;;;;1.60;1.50;;;15.80;64.70;;;;;;5033436;28;20222;-69
2021/03/23 11:03:36;;;;;;;1.73;1.63;;;15.70;64.60;;;;;;5037101;28;20274;-69
2021/03/23 11:06:04;;;;;;;1.92;1.55;;;15.60;63.40;;;;;;5032593;28;20211;-69
2021/03/23 11:08:32;;;;;;;1.52;1.42;;;15.40;63.80;;;;;;5031769;28;20223;-69
2021/03/23 11:11:00;;;;;;;2.13;1.77;;;15.30;65.10;;;;;;5033946;28;20791;-69
2021/03/23 11:13:27;;;;;;;1.45;1.35;;;15.20;63.60;;;;;;5035990;28;20227;-69
2021/03/23 11:15:57;;;;;;;2.65;1.30;;;15.20;63.80;;;;;;5042435;28;20195;-69
2021/03/23 11:18:29;;;;;;;1.63;1.30;;;15.20;64.10;;;;;;5037793;28;20305;-68
2021/03/23 11:20:56;;;;;;;1.90;1.60;;;15.50;64.20;;;;;;5031284;28;20302;-69
2021/03/23 11:23:32;;;;;;;1.30;1.30;;;15.90;64.50;;;;;;5046258;28;20219;-70
2021/03/23 11:26:00;;;;;;;8.10;1.50;;;16.20;63.70;;;;;;5047970;28;20196;-70
2021/03/23 11:28:29;;;;;;;1.83;1.50;;;16.20;64.40;;;;;;5040881;28;20301;-69
2021/03/23 11:30:56;;;;;;;1.80;1.40;;;16.00;63.20;;;;;;5040788;28;20574;-69
2021/03/23 11:33:23;;;;;;;1.63;1.35;;;16.00;63.90;;;;;;5036761;28;20224;-69
2021/03/23 11:35:50;;;;;;;1.23;1.05;;;16.20;63.40;;;;;;5035466;28;20302;-69
2021/03/23 11:38:18;;;;;;;1.75;1.60;;;16.20;64.20;;;;;;5040012;28;20313;-69
2021/03/23 11:40:44;;;;;;;2.85;1.50;;;16.40;64.60;;;;;;5036414;28;20266;-68
2021/03/23 11:43:17;;;;;;;3.90;1.83;;;16.50;63.10;;;;;;5038622;28;20277;-68
2021/03/23 11:45:45;;;;;;;2.05;1.42;;;16.50;63.30;;;;;;5039919;28;20616;-68
2021/03/23 11:48:14;;;;;;;1.40;1.23;;;16.40;64.80;;;;;;5033814;28;20313;-68
2021/03/23 11:50:42;;;;;;;1.52;1.42;;;16.30;62.90;;;;;;5034170;28;20228;-69
2021/03/23 11:53:10;;;;;;;1.10;1.00;;;16.20;63.50;;;;;;5035154;28;20225;-68
2021/03/23 11:55:40;;;;;;;1.65;1.20;;;16.30;64.00;;;;;;5039997;28;20603;-68
2021/03/23 11:58:08;;;;;;;1.45;1.30;;;16.20;64.00;;;;;;5036362;28;20238;-68
2021/03/23 12:00:37;;;;;;;1.77;1.30;;;16.10;64.10;;;;;;5035492;28;20218;-68
2021/03/23 12:03:08;;;;;;;1.45;1.20;;;16.10;64.00;;;;;;5040053;28;20281;-68
2021/03/23 12:05:37;;;;;;;1.55;1.45;;;15.90;64.00;;;;;;5038840;28;20278;-68
2021/03/23 12:08:16;;;;;;;1.13;1.02;;;15.60;64.00;;;;;;5044654;28;20230;-68
2021/03/23 12:10:49;;;;;;;3.35;1.45;;;15.90;65.00;;;;;;5039064;28;20216;-67
2021/03/23 12:13:23;;;;;;;1.42;1.20;;;16.30;65.00;;;;;;5039935;28;20300;-68
2021/03/23 12:15:58;;;;;;;2.40;1.50;;;16.50;64.00;;;;;;5039014;28;20676;-68
2021/03/23 12:18:26;;;;;;;2.30;1.30;;;16.70;63.20;;;;;;5036912;28;20215;-68
2021/03/23 12:21:00;;;;;;;1.50;1.40;;;16.80;63.30;;;;;;5037570;28;20462;-67
2021/03/23 12:23:27;;;;;;;2.38;1.30;;;16.70;62.90;;;;;;5036677;28;20215;-68
2021/03/23 12:25:56;;;;;;;1.40;1.30;;;16.70;63.50;;;;;;5036511;28;20252;-68
2021/03/23 12:28:23;;;;;;;2.95;1.27;;;16.60;62.80;;;;;;5035262;28;20223;-68
2021/03/23 12:30:49;;;;;;;1.55;1.30;;;16.60;63.10;;;;;;5037533;28;20359;-68
2021/03/23 12:33:17;;;;;;;2.03;1.25;;;16.40;62.50;;;;;;5034555;28;20238;-68
2021/03/23 12:35:44;;;;;;;2.05;1.30;;;16.50;64.10;;;;;;5034967;28;20197;-68
2021/03/23 12:38:13;;;;;;;1.35;1.25;;;16.50;63.80;;;;;;5040281;28;20222;-69
2021/03/23 12:40:40;;;;;;;1.88;1.20;;;16.50;64.30;;;;;;5040518;28;20717;-67
2021/03/23 12:43:10;;;;;;;2.35;1.25;;;16.40;63.70;;;;;;5034723;28;20272;-68
2021/03/23 12:45:40;;;;;;;1.38;1.27;;;16.40;63.70;;;;;;5033426;28;20195;-68
2021/03/23 12:48:08;;;;;;;1.95;1.33;;;16.40;64.50;;;;;;5038438;28;20728;-68
2021/03/23 12:50:35;;;;;;;1.52;1.25;;;16.20;63.70;;;;;;5048431;28;20219;-69
2021/03/23 12:53:04;;;;;;;1.77;1.40;;;16.10;64.20;;;;;;5049398;28;20222;-68
2021/03/23 12:55:32;;;;;;;2.40;1.10;;;16.20;64.20;;;;;;5039703;28;20203;-69
2021/03/23 12:58:02;;;;;;;1.15;1.05;;;16.20;64.00;;;;;;5036374;28;20204;-68
2021/03/23 13:00:31;;;;;;;1.20;1.10;;;16.20;64.20;;;;;;5032901;28;20664;-68
2021/03/23 13:02:58;;;;;;;0.90;0.90;;;16.50;64.00;;;;;;5032710;28;20281;-68
2021/03/23 13:05:25;;;;;;;1.20;1.10;;;16.70;63.50;;;;;;5035379;28;20202;-68
2021/03/23 13:07:57;;;;;;;1.05;0.98;;;17.10;64.10;;;;;;5033771;28;20199;-68
2021/03/23 13:10:32;;;;;;;1.60;1.20;;;17.30;64.10;;;;;;5036265;28;20223;-68
2021/03/23 13:13:01;;;;;;;1.20;1.13;;;17.50;64.50;;;;;;5034229;28;20225;-68
2021/03/23 13:15:29;;;;;;;1.48;1.38;;;17.70;63.50;;;;;;5034613;28;20672;-68
2021/03/23 13:17:56;;;;;;;1.45;1.00;;;17.70;62.00;;;;;;5031189;28;20207;-68
2021/03/23 13:20:23;;;;;;;1.40;1.30;;;17.40;61.30;;;;;;5034119;28;20196;-68